Skime, Minnesota
Current Conditions -  °F | °C
As of 7:14 AM on Monday 22 Dec 2014 (Local Time) from KROX Reporting Station
Haze Haze  
Wind Chill: 26°   Ceiling: 500
Heat Index: 34°   Visibility: 4mi
Dew Point: 30°   Wind: 10mph
Humidity: 87%   Direction: 90°E
Pressure: 29.6"   Gusts: NA
Location:  48.629°N, 95.7336°W
Report Text: KROX 221314Z AUTO 09009KT 4SM BR OVC005 01/M01 A2960 RMK AO2
Loading
Personal Weather Stations






























Interactive Weather Map New forecast layout! Learn more

10-Day Weather Forecast

Advertisements
Track Severe Weather on mobile